Kirsten H — WY7979 — position and weather

sailwx.info

Track history (hours):
 
Tides and Currents Weather Stations Pressure Air Temp Water Temp Dewpoint Dewpoint Depression Visibility Wind Speed Wind Dir Waves Ship Positions

Kirsten H

Owner: BOYER TOWING, KETCHIKAN, AK. More information available from US FCC via Universal Licensing System and Coast Guard Vessel Documentation Center.

Last reported at 2014-Dec-19 10:34 UTC. Time now 2014-Dec-19 10:50 UTC.
Position N 47°47' W 122°42'.

Length 22 m; draft 3.7 m.

Type: Tow > 200 m length. MMSI: 366623050.

Date/timePositionNaut miles runAvg speedWind from/ knotsBaromVisibWave heightAir tempDewpointWater temp
2014-Dec-19 10:34N 47°47' W 122°42'1 0.7
2014-Dec-19 09:34N 47°48' W 122°42'4 3.6
2014-Dec-19 08:33N 47°51' W 122°38'3 3.1
2014-Dec-19 07:33N 47°53' W 122°36'3 2.9
2014-Dec-19 06:28N 47°56' W 122°37'2 2.3
2014-Dec-19 05:31N 47°56' W 122°34'2 2.3
2014-Dec-19 04:33N 47°55' W 122°31'4 4.1
2014-Dec-19 03:33N 47°51' W 122°30'4 4.0
2014-Dec-19 02:33N 47°47' W 122°28'4 3.9
2014-Dec-19 01:33N 47°43' W 122°28'4 4.2
2014-Dec-19 00:34N 47°39' W 122°29'4 3.9
2014-Dec-18 23:33N 47°35' W 122°28'4 3.8
2014-Dec-18 22:33N 47°31' W 122°29'4 3.6
2014-Dec-18 21:34N 47°28' W 122°31'3 3.5
2014-Dec-18 20:34N 47°25' W 122°32'3 3.3
2014-Dec-18 19:33N 47°21' W 122°32'4 3.6
2014-Dec-18 18:34N 47°19' W 122°29'4 3.6
2014-Dec-18 17:33N 47°16' W 122°24'3 2.6
2014-Dec-18 16:33N 47°18' W 122°27'9 8.8
2014-Dec-18 15:33N 47°27' W 122°23'9 8.6
2014-Dec-18 14:33N 47°35' W 122°24'  
2014-Dec-13 22:32N 47°32' W 122°20'3 3.3
2014-Dec-13 21:33N 47°35' W 122°22'7 7.4
2014-Dec-13 20:33N 47°35' W 122°33'6 5.9
2014-Dec-13 19:33N 47°32' W 122°40'3 3.4
2014-Dec-13 18:33N 47°34' W 122°36'5 4.9
2014-Dec-13 17:33N 47°31' W 122°30'8 7.6
2014-Dec-13 16:33N 47°24' W 122°32'7 7.0
2014-Dec-13 15:33N 47°18' W 122°27'2 1.8
2014-Dec-13 14:21N 47°17' W 122°24'0 0.1
2014-Dec-13 13:32N 47°17' W 122°24'0 0.0
2014-Dec-13 12:15N 47°17' W 122°24'1 1.3
2014-Dec-13 11:33N 47°17' W 122°25'2 2.5
2014-Dec-13 10:33N 47°19' W 122°28'3 3.1
2014-Dec-13 09:33N 47°21' W 122°25'3 2.8
2014-Dec-13 08:33N 47°24' W 122°22'3 3.1
2014-Dec-13 07:33N 47°26' W 122°25'4 4.1
2014-Dec-13 06:33N 47°30' W 122°27'5 4.8
2014-Dec-13 05:33N 47°35' W 122°28'5 5.4
2014-Dec-13 04:33N 47°40' W 122°29'6 6.2
2014-Dec-13 03:33N 47°46' W 122°28'7 6.8
2014-Dec-13 02:33N 47°53' W 122°30'6 3.2
2014-Dec-13 00:33N 47°50' W 122°39'6 5.6
2014-Dec-12 23:33N 47°46' W 122°44'6 6.4
2014-Dec-12 22:33N 47°51' W 122°38'6 5.9
2014-Dec-12 21:32N 47°56' W 122°33'10 9.9
2014-Dec-12 20:33N 47°48' W 122°26'1110.6
2014-Dec-12 19:33N 47°37' W 122°24'4 0.2
2014-Dec-12 01:33N 47°33' W 122°21'8 8.3
2014-Dec-12 00:33N 47°40' W 122°28'1010.0
2014-Dec-11 23:33N 47°50' W 122°29'10 9.7
2014-Dec-11 22:33N 47°58' W 122°37'9 6.5
2014-Dec-11 21:15N 48°04' W 122°45'1 0.0
2014-Dec-10 21:09N 48°05' W 122°45'8 7.8
2014-Dec-10 20:06N 48°00' W 122°36'610.5
2014-Dec-10 19:34N 47°56' W 122°30'1010.3
2014-Dec-10 18:34N 47°46' W 122°25'9 9.2
2014-Dec-10 17:33N 47°37' W 122°23'2 2.3
2014-Dec-10 16:30N 47°35' W 122°21'3 3.1
2014-Dec-10 15:34N 47°33' W 122°20'0 0.3
2014-Dec-10 14:32N 47°32' W 122°20'0 0.0
2014-Dec-10 13:08N 47°32' W 122°20'0 0.0
2014-Dec-10 12:20N 47°32' W 122°20'0 0.0
2014-Dec-10 11:23N 47°32' W 122°20'0 0.0
2014-Dec-10 06:14N 47°32' W 122°20'0 0.0
2014-Dec-10 05:11N 47°32' W 122°20'0 0.0
2014-Dec-10 04:29N 47°32' W 122°20'0 0.0
2014-Dec-10 03:23N 47°32' W 122°20'0 0.0
2014-Dec-10 02:29N 47°32' W 122°20'0 0.0
2014-Dec-10 01:19N 47°32' W 122°20'0 0.6
2014-Dec-10 00:33N 47°33' W 122°20'2 2.2
2014-Dec-09 23:33N 47°35' W 122°22'0 0.3
2014-Dec-09 22:33N 47°35' W 122°22'5 5.2
2014-Dec-09 21:33N 47°34' W 122°29'6 6.1
2014-Dec-09 20:33N 47°33' W 122°38'2 1.6
2014-Dec-09 19:33N 47°32' W 122°40'0 0.0
2014-Dec-09 18:34N 47°32' W 122°40'0 0.1
2014-Dec-09 17:34N 47°32' W 122°40'7 6.8
2014-Dec-09 16:33N 47°34' W 122°30'7 7.1
2014-Dec-09 15:33N 47°32' W 122°20'  
Track history (hours):
 
Tides and Currents Weather Stations Pressure Air Temp Water Temp Dewpoint Dewpoint Depression Visibility Wind Speed Wind Dir Waves Ship Positions

Kirsten H

Owner: BOYER TOWING, KETCHIKAN, AK. More information available from US FCC via Universal Licensing System and Coast Guard Vessel Documentation Center.

Last reported at 2014-Dec-19 10:34 UTC. Time now 2014-Dec-19 10:50 UTC.
Position N 47°47' W 122°42'.

Length 22 m; draft 3.7 m.

Type: Tow > 200 m length. MMSI: 366623050.

Date/timePositionNaut miles runAvg speedWind from/ knotsBaromVisibWave heightAir tempDewpointWater temp
2014-Dec-19 10:34N 47°47' W 122°42'1 0.7
2014-Dec-19 09:34N 47°48' W 122°42'4 3.6
2014-Dec-19 08:33N 47°51' W 122°38'3 3.1
2014-Dec-19 07:33N 47°53' W 122°36'3 2.9
2014-Dec-19 06:28N 47°56' W 122°37'2 2.3
2014-Dec-19 05:31N 47°56' W 122°34'2 2.3
2014-Dec-19 04:33N 47°55' W 122°31'4 4.1
2014-Dec-19 03:33N 47°51' W 122°30'4 4.0
2014-Dec-19 02:33N 47°47' W 122°28'4 3.9
2014-Dec-19 01:33N 47°43' W 122°28'4 4.2
2014-Dec-19 00:34N 47°39' W 122°29'4 3.9
2014-Dec-18 23:33N 47°35' W 122°28'4 3.8
2014-Dec-18 22:33N 47°31' W 122°29'4 3.6
2014-Dec-18 21:34N 47°28' W 122°31'3 3.5
2014-Dec-18 20:34N 47°25' W 122°32'3 3.3
2014-Dec-18 19:33N 47°21' W 122°32'4 3.6
2014-Dec-18 18:34N 47°19' W 122°29'4 3.6
2014-Dec-18 17:33N 47°16' W 122°24'3 2.6
2014-Dec-18 16:33N 47°18' W 122°27'9 8.8
2014-Dec-18 15:33N 47°27' W 122°23'9 8.6
2014-Dec-18 14:33N 47°35' W 122°24'  
2014-Dec-13 22:32N 47°32' W 122°20'3 3.3
2014-Dec-13 21:33N 47°35' W 122°22'7 7.4
2014-Dec-13 20:33N 47°35' W 122°33'6 5.9
2014-Dec-13 19:33N 47°32' W 122°40'3 3.4
2014-Dec-13 18:33N 47°34' W 122°36'5 4.9
2014-Dec-13 17:33N 47°31' W 122°30'8 7.6
2014-Dec-13 16:33N 47°24' W 122°32'7 7.0
2014-Dec-13 15:33N 47°18' W 122°27'2 1.8
2014-Dec-13 14:21N 47°17' W 122°24'0 0.1
2014-Dec-13 13:32N 47°17' W 122°24'0 0.0
2014-Dec-13 12:15N 47°17' W 122°24'1 1.3
2014-Dec-13 11:33N 47°17' W 122°25'2 2.5
2014-Dec-13 10:33N 47°19' W 122°28'3 3.1
2014-Dec-13 09:33N 47°21' W 122°25'3 2.8
2014-Dec-13 08:33N 47°24' W 122°22'3 3.1
2014-Dec-13 07:33N 47°26' W 122°25'4 4.1
2014-Dec-13 06:33N 47°30' W 122°27'5 4.8
2014-Dec-13 05:33N 47°35' W 122°28'5 5.4
2014-Dec-13 04:33N 47°40' W 122°29'6 6.2
2014-Dec-13 03:33N 47°46' W 122°28'7 6.8
2014-Dec-13 02:33N 47°53' W 122°30'6 3.2
2014-Dec-13 00:33N 47°50' W 122°39'6 5.6
2014-Dec-12 23:33N 47°46' W 122°44'6 6.4
2014-Dec-12 22:33N 47°51' W 122°38'6 5.9
2014-Dec-12 21:32N 47°56' W 122°33'10 9.9
2014-Dec-12 20:33N 47°48' W 122°26'1110.6
2014-Dec-12 19:33N 47°37' W 122°24'4 0.2
2014-Dec-12 01:33N 47°33' W 122°21'8 8.3
2014-Dec-12 00:33N 47°40' W 122°28'1010.0
2014-Dec-11 23:33N 47°50' W 122°29'10 9.7
2014-Dec-11 22:33N 47°58' W 122°37'9 6.5
2014-Dec-11 21:15N 48°04' W 122°45'1 0.0
2014-Dec-10 21:09N 48°05' W 122°45'8 7.8
2014-Dec-10 20:06N 48°00' W 122°36'610.5
2014-Dec-10 19:34N 47°56' W 122°30'1010.3
2014-Dec-10 18:34N 47°46' W 122°25'9 9.2
2014-Dec-10 17:33N 47°37' W 122°23'2 2.3
2014-Dec-10 16:30N 47°35' W 122°21'3 3.1
2014-Dec-10 15:34N 47°33' W 122°20'0 0.3
2014-Dec-10 14:32N 47°32' W 122°20'0 0.0
2014-Dec-10 13:08N 47°32' W 122°20'0 0.0
2014-Dec-10 12:20N 47°32' W 122°20'0 0.0
2014-Dec-10 11:23N 47°32' W 122°20'0 0.0
2014-Dec-10 06:14N 47°32' W 122°20'0 0.0
2014-Dec-10 05:11N 47°32' W 122°20'0 0.0
2014-Dec-10 04:29N 47°32' W 122°20'0 0.0
2014-Dec-10 03:23N 47°32' W 122°20'0 0.0
2014-Dec-10 02:29N 47°32' W 122°20'0 0.0
2014-Dec-10 01:19N 47°32' W 122°20'0 0.6
2014-Dec-10 00:33N 47°33' W 122°20'2 2.2
2014-Dec-09 23:33N 47°35' W 122°22'0 0.3
2014-Dec-09 22:33N 47°35' W 122°22'5 5.2
2014-Dec-09 21:33N 47°34' W 122°29'6 6.1
2014-Dec-09 20:33N 47°33' W 122°38'2 1.6
2014-Dec-09 19:33N 47°32' W 122°40'0 0.0
2014-Dec-09 18:34N 47°32' W 122°40'0 0.1
2014-Dec-09 17:34N 47°32' W 122°40'7 6.8
2014-Dec-09 16:33N 47°34' W 122°30'7 7.1
2014-Dec-09 15:33N 47°32' W 122°20'  

Dump ship's entire track history